createdAt,value
2023-05-06T00:01:14.865Z,6.4
2023-05-06T00:06:15.447Z,5.2
2023-05-06T00:08:17.162Z,5.6
2023-05-06T00:13:17.862Z,5.4
2023-05-06T00:18:18.382Z,4.7
2023-05-06T00:23:19.042Z,7.6
2023-05-06T00:28:19.728Z,5.0
2023-05-06T00:33:20.335Z,4.2
2023-05-06T00:38:21.018Z,6.3
2023-05-06T00:43:21.692Z,5.5
2023-05-06T00:48:22.298Z,4.5
2023-05-06T00:53:22.829Z,4.5
2023-05-06T00:58:23.564Z,5.9
2023-05-06T01:03:24.338Z,6.1
2023-05-06T01:08:24.864Z,5.9
2023-05-06T01:13:25.640Z,5.3
2023-05-06T01:18:26.097Z,4.6
2023-05-06T01:23:26.838Z,5.1
2023-05-06T01:28:27.507Z,5.4
2023-05-06T01:33:28.171Z,3.9
2023-05-06T01:38:28.755Z,5.2
2023-05-06T01:43:29.376Z,3.8
2023-05-06T01:48:30.035Z,5.7
2023-05-06T01:53:30.564Z,6.8
2023-05-06T01:58:31.175Z,3.8
2023-05-06T02:03:31.999Z,4.7
2023-05-06T02:08:32.484Z,4.4
2023-05-06T02:13:33.070Z,5.1
2023-05-06T02:18:33.828Z,4.6
2023-05-06T02:23:34.380Z,4.1
2023-05-06T02:28:35.082Z,4.2
2023-05-06T02:33:35.888Z,4.4
2023-05-06T02:38:36.362Z,5.4
2023-05-06T02:43:37.006Z,5.1
2023-05-06T02:48:38.097Z,6.1
2023-05-06T02:53:38.394Z,4.7
2023-05-06T02:58:38.956Z,6.8
2023-05-06T03:03:39.732Z,6.5
2023-05-06T03:08:40.355Z,5.5
2023-05-06T03:13:41.007Z,4.1
2023-05-06T03:18:41.811Z,4.9
2023-05-06T03:23:42.365Z,5.6
2023-05-06T03:28:43.009Z,4.6
2023-05-06T03:33:43.760Z,4.6
2023-05-06T03:38:44.359Z,4.9
2023-05-06T03:43:44.949Z,4.2
2023-05-06T03:48:45.819Z,5.3
2023-05-06T03:53:46.362Z,4.5
2023-05-06T03:58:46.890Z,3.9
2023-05-06T04:03:47.776Z,6.0
2023-05-06T04:08:48.252Z,5.6
2023-05-06T04:13:48.857Z,4.4
2023-05-06T04:18:49.699Z,4.2
2023-05-06T04:23:50.246Z,5.3
2023-05-06T04:28:50.868Z,6.0
2023-05-06T04:33:51.641Z,4.4
2023-05-06T04:38:52.170Z,4.5
2023-05-06T04:43:52.981Z,4.9
2023-05-06T04:48:53.640Z,4.8
2023-05-06T04:53:54.137Z,5.0
2023-05-06T04:58:54.923Z,5.5
2023-05-06T05:03:55.601Z,5.3
2023-05-06T05:08:56.971Z,6.1
2023-05-06T05:13:57.712Z,6.1
2023-05-06T05:18:57.571Z,7.0
2023-05-06T05:23:58.092Z,5.4
2023-05-06T05:28:58.760Z,4.2
2023-05-06T05:33:59.493Z,4.7
2023-05-06T05:39:00.016Z,4.3
2023-05-06T05:44:00.695Z,7.9
2023-05-06T05:49:01.437Z,5.3
2023-05-06T05:54:01.917Z,6.0
2023-05-06T05:59:02.675Z,4.2
2023-05-06T06:04:03.485Z,4.4
2023-05-06T06:09:03.910Z,4.7
2023-05-06T06:14:04.779Z,5.1
2023-05-06T06:19:05.169Z,4.1
2023-05-06T06:24:05.874Z,3.7
2023-05-06T06:29:06.451Z,4.1
2023-05-06T06:34:07.070Z,4.7
2023-05-06T06:39:07.701Z,3.1
2023-05-06T06:44:08.338Z,3.7
2023-05-06T06:49:08.979Z,3.9
2023-05-06T06:54:09.589Z,3.9
2023-05-06T06:59:10.132Z,3.5
2023-05-06T07:04:10.860Z,4.1
2023-05-06T07:09:11.380Z,3.3
2023-05-06T07:14:11.961Z,3.6
2023-05-06T07:19:12.679Z,2.7
2023-05-06T07:24:13.283Z,3.9
2023-05-06T07:29:13.877Z,3.1
2023-05-06T07:34:14.629Z,3.3
2023-05-06T07:39:15.171Z,3.2
2023-05-06T07:44:15.832Z,3.5
2023-05-06T07:49:16.463Z,3.0
2023-05-06T07:54:17.039Z,3.1
2023-05-06T07:59:17.686Z,3.0
2023-05-06T08:04:18.539Z,2.8
2023-05-06T08:09:22.730Z,2.9
2023-05-06T08:14:19.630Z,2.6
2023-05-06T08:19:20.246Z,2.8
2023-05-06T08:24:20.853Z,2.7
2023-05-06T08:29:21.490Z,3.3
2023-05-06T08:34:22.248Z,4.3
2023-05-06T08:39:22.823Z,3.2
2023-05-06T08:44:23.482Z,2.4
2023-05-06T08:49:24.164Z,3.2
2023-05-06T08:54:24.869Z,3.3
2023-05-06T08:59:25.521Z,3.2
2023-05-06T09:04:26.210Z,3.0
2023-05-06T09:09:26.867Z,2.6
2023-05-06T09:14:27.461Z,2.7
2023-05-06T09:19:28.140Z,2.6
2023-05-06T09:24:28.806Z,2.5
2023-05-06T09:29:29.493Z,2.1
2023-05-06T09:34:30.406Z,3.5
2023-05-06T09:39:30.771Z,3.2
2023-05-06T09:44:31.514Z,2.9
2023-05-06T09:49:32.656Z,3.6
2023-05-06T09:54:32.941Z,2.5
2023-05-06T09:59:33.776Z,3.0
2023-05-06T10:04:34.793Z,2.4
2023-05-06T10:09:35.184Z,1.8
2023-05-06T10:14:35.956Z,2.9
2023-05-06T10:19:36.857Z,2.2
2023-05-06T10:24:37.544Z,3.1
2023-05-06T10:29:38.206Z,2.7
2023-05-06T10:34:39.311Z,2.6
2023-05-06T10:39:42.015Z,2.2
2023-05-06T10:44:40.570Z,3.1
2023-05-06T10:49:41.884Z,2.5
2023-05-06T10:54:41.958Z,2.7
2023-05-06T10:59:42.834Z,2.7
2023-05-06T11:04:43.649Z,2.6
2023-05-06T11:09:44.381Z,3.0
2023-05-06T11:14:45.037Z,2.6
2023-05-06T11:19:45.980Z,1.4
2023-05-06T11:24:46.742Z,1.4
2023-05-06T11:29:47.441Z,1.9
2023-05-06T11:34:48.281Z,1.9
2023-05-06T11:39:49.032Z,1.3
2023-05-06T11:44:49.844Z,1.3
2023-05-06T11:49:50.714Z,1.5
2023-05-06T11:54:51.336Z,1.7
2023-05-06T11:59:52.046Z,1.2
2023-05-06T12:04:53.080Z,1.0
2023-05-06T12:09:53.719Z,1.2
2023-05-06T12:14:54.551Z,1.4
2023-05-06T12:19:55.357Z,1.4
2023-05-06T12:24:56.032Z,2.0
2023-05-06T12:29:57.007Z,1.3
2023-05-06T12:34:57.795Z,1.2
2023-05-06T12:39:59.384Z,1.2
2023-05-06T12:44:59.202Z,1.5
2023-05-06T12:50:00.145Z,0.8
2023-05-06T12:55:00.835Z,2.5
2023-05-06T13:00:01.696Z,1.7
2023-05-06T13:05:02.570Z,2.0
2023-05-06T13:10:03.432Z,1.3
2023-05-06T13:15:04.061Z,1.9
2023-05-06T13:20:05.426Z,2.6
2023-05-06T13:25:05.847Z,2.0
2023-05-06T13:30:06.682Z,1.9
2023-05-06T13:35:07.533Z,3.1
2023-05-06T13:40:08.313Z,2.3
2023-05-06T13:45:09.003Z,2.5
2023-05-06T13:50:10.449Z,1.9
2023-05-06T13:55:10.914Z,2.4
2023-05-06T14:00:11.526Z,2.8
2023-05-06T14:05:12.661Z,2.4
2023-05-06T14:10:13.046Z,3.3
2023-05-06T14:15:13.949Z,4.4
2023-05-06T14:20:14.740Z,4.0
2023-05-06T14:25:15.578Z,2.9
2023-05-06T14:30:16.295Z,9.2
2023-05-06T14:35:17.090Z,4.4
2023-05-06T14:40:18.050Z,3.5
2023-05-06T14:45:18.662Z,3.5
2023-05-06T14:50:19.614Z,3.0
2023-05-06T14:55:20.267Z,3.0
2023-05-06T15:00:21.032Z,2.5
2023-05-06T15:05:21.933Z,2.6
2023-05-06T15:10:22.598Z,3.1
2023-05-06T15:15:23.480Z,4.1
2023-05-06T15:20:24.116Z,3.8
2023-05-06T15:25:35.156Z,3.9
2023-05-06T15:30:25.718Z,1.8
2023-05-06T15:35:26.794Z,3.4
2023-05-06T15:40:27.392Z,2.4
2023-05-06T15:45:28.080Z,3.5
2023-05-06T15:50:33.858Z,3.8
2023-05-06T15:55:29.744Z,3.3
2023-05-06T16:00:30.460Z,3.5
2023-05-06T16:05:31.243Z,2.8
2023-05-06T16:10:31.937Z,4.2
2023-05-06T16:15:32.675Z,2.5
2023-05-06T16:20:33.485Z,2.5
2023-05-06T16:25:34.150Z,2.9
2023-05-06T16:30:35.022Z,3.0
2023-05-06T16:35:35.852Z,2.2
2023-05-06T16:40:38.974Z,3.1
2023-05-06T16:45:37.367Z,2.7
2023-05-06T16:50:38.160Z,4.8
2023-05-06T16:55:38.868Z,3.1
2023-05-06T17:00:39.659Z,3.4
2023-05-06T17:05:40.453Z,3.2
2023-05-06T17:10:41.077Z,3.5
2023-05-06T17:15:41.844Z,2.4
2023-05-06T17:20:54.274Z,3.7
2023-05-06T17:25:43.368Z,3.1
2023-05-06T17:30:44.060Z,3.4
2023-05-06T17:35:44.918Z,3.4
2023-05-06T17:40:45.587Z,3.2
2023-05-06T17:45:46.427Z,2.9
2023-05-06T17:50:47.138Z,2.7
2023-05-06T17:55:47.828Z,2.3
2023-05-06T18:00:48.592Z,2.9
2023-05-06T18:05:49.390Z,3.0
2023-05-06T18:10:50.042Z,4.4
2023-05-06T18:15:50.902Z,5.9
2023-05-06T18:20:51.688Z,6.9
2023-05-06T18:25:52.344Z,7.2
2023-05-06T18:30:53.043Z,6.9
2023-05-06T18:35:53.966Z,8.3
2023-05-06T18:40:54.657Z,6.1
2023-05-06T18:50:56.183Z,9.7
2023-05-06T18:55:56.964Z,8.8
2023-05-06T19:00:57.768Z,4.9
2023-05-06T19:05:58.516Z,5.6
2023-05-06T19:10:59.309Z,6.8
2023-05-06T19:15:59.984Z,7.4
2023-05-06T19:21:00.841Z,8.8
2023-05-06T19:26:01.485Z,5.2
2023-05-06T19:31:02.122Z,7.1
2023-05-06T19:36:03.041Z,8.2
2023-05-06T19:41:03.611Z,8.2
2023-05-06T19:46:04.301Z,5.5
2023-05-06T19:51:05.205Z,6.9
2023-05-06T19:56:05.665Z,7.1
2023-05-06T20:01:06.469Z,7.0
2023-05-06T20:06:06.947Z,5.8
2023-05-06T20:11:07.609Z,8.1
2023-05-06T20:16:08.300Z,6.1
2023-05-06T20:21:08.958Z,7.7
2023-05-06T20:26:09.538Z,8.2
2023-05-06T20:31:10.191Z,6.9
2023-05-06T20:36:10.953Z,6.5
2023-05-06T20:41:11.519Z,7.6
2023-05-06T20:46:12.277Z,7.3
2023-05-06T20:51:13.245Z,9.4
2023-05-06T20:56:13.454Z,8.7
2023-05-06T21:01:14.158Z,7.0
2023-05-06T21:06:15.046Z,6.5
2023-05-06T21:11:15.465Z,8.4
2023-05-06T21:16:16.052Z,7.8
2023-05-06T21:21:17.124Z,8.3
2023-05-06T21:26:17.473Z,7.3
2023-05-06T21:31:18.049Z,8.2
2023-05-06T21:36:18.742Z,7.0
2023-05-06T21:41:19.335Z,5.3
2023-05-06T21:46:19.926Z,7.2
2023-05-06T21:51:21.110Z,6.9
2023-05-06T21:56:21.153Z,7.8
2023-05-06T22:01:21.882Z,6.8
2023-05-06T22:06:22.538Z,7.3
2023-05-06T22:11:23.123Z,7.5
2023-05-06T22:16:23.750Z,7.1
2023-05-06T22:21:24.424Z,8.6
2023-05-06T22:26:24.937Z,6.6
2023-05-06T22:31:25.659Z,6.4
2023-05-06T22:36:26.331Z,8.4
2023-05-06T22:41:26.796Z,7.7
2023-05-06T22:46:27.656Z,6.6
2023-05-06T22:51:28.379Z,7.8
2023-05-06T22:56:28.622Z,6.1
2023-05-06T23:01:29.289Z,5.7
2023-05-06T23:06:29.885Z,8.3
2023-05-06T23:11:30.430Z,6.0
2023-05-06T23:16:31.071Z,6.3
2023-05-06T23:21:31.699Z,5.4
2023-05-06T23:26:32.279Z,5.0
2023-05-06T23:31:32.896Z,5.5
2023-05-06T23:36:33.589Z,7.0
2023-05-06T23:41:34.056Z,5.7
2023-05-06T23:46:34.788Z,7.3
2023-05-06T23:51:35.443Z,5.7
2023-05-06T23:56:35.886Z,6.7
